Time;durP1;ratioP1;P1;durP2;ratioP2;P2;SDS_P1;SDS_P2;PMS_P1;PMS_P2;Temp;Humidity;BMP_temperature;BMP_pressure;BME280_temperature;BME280_humidity;BME280_pressure;Samples;Min_cycle;Max_cycle;Signal;HPM_P1;HPM_P2
2023/10/31 00:02:17;;;;;;;9.95;6.65;;;11.30;99.90;;;;;;5005471;28;20053;-79
2023/10/31 00:04:42;;;;;;;7.35;6.60;;;11.30;99.90;;;;;;5003493;28;20041;-79
2023/10/31 00:07:08;;;;;;;9.32;7.90;;;11.30;99.90;;;;;;5017065;28;20030;-78
2023/10/31 00:09:34;;;;;;;8.45;6.25;;;11.20;99.90;;;;;;5013302;28;20069;-80
2023/10/31 00:12:00;;;;;;;8.80;6.30;;;11.20;99.90;;;;;;5011656;28;20048;-79
2023/10/31 00:14:25;;;;;;;7.45;6.20;;;11.30;99.90;;;;;;5013075;28;20050;-80
2023/10/31 00:16:51;;;;;;;10.55;6.75;;;11.30;99.90;;;;;;5023839;28;20072;-81
2023/10/31 00:19:17;;;;;;;10.98;6.57;;;11.30;99.90;;;;;;5017637;28;20052;-78
2023/10/31 00:21:43;;;;;;;8.63;6.32;;;11.30;99.90;;;;;;5005959;28;20493;-80
2023/10/31 00:24:09;;;;;;;6.90;6.20;;;11.20;99.90;;;;;;5005557;28;20198;-79
2023/10/31 00:26:34;;;;;;;7.72;5.70;;;11.30;99.90;;;;;;5012533;28;20096;-80
2023/10/31 00:29:00;;;;;;;16.00;6.32;;;11.20;99.90;;;;;;5008812;28;20434;-79
2023/10/31 00:31:26;;;;;;;38.28;6.40;;;11.20;99.90;;;;;;5007491;28;20034;-79
2023/10/31 00:33:52;;;;;;;65.82;7.70;;;11.30;99.90;;;;;;5011582;28;20034;-80
2023/10/31 00:36:17;;;;;;;51.53;7.22;;;11.30;99.90;;;;;;5012091;28;20033;-78
2023/10/31 00:38:43;;;;;;;5.72;5.10;;;11.30;99.90;;;;;;5014723;28;20029;-79
2023/10/31 00:41:09;;;;;;;8.27;5.10;;;11.30;99.90;;;;;;5006345;28;20029;-78
2023/10/31 00:43:34;;;;;;;14.70;6.07;;;11.30;99.90;;;;;;5010419;28;20045;-79
2023/10/31 00:46:03;;;;;;;35.28;7.05;;;11.30;99.90;;;;;;5010833;28;20037;-79
2023/10/31 00:48:29;;;;;;;8.38;5.60;;;11.20;99.90;;;;;;5008250;28;20113;-79
2023/10/31 00:50:54;;;;;;;7.15;5.72;;;11.20;99.90;;;;;;5003596;28;20614;-79
2023/10/31 00:53:20;;;;;;;7.32;5.40;;;11.20;99.90;;;;;;5006257;28;20402;-80
2023/10/31 00:55:46;;;;;;;10.23;4.88;;;11.30;99.90;;;;;;5010618;28;20083;-80
2023/10/31 00:58:12;;;;;;;10.15;5.68;;;11.30;99.90;;;;;;5010911;28;20034;-78
2023/10/31 01:00:38;;;;;;;24.85;5.50;;;11.30;99.90;;;;;;4987248;28;20039;-79
2023/10/31 01:03:04;;;;;;;6.22;5.07;;;11.30;99.90;;;;;;5012787;28;20456;-79
2023/10/31 01:05:30;;;;;;;9.48;5.32;;;11.30;99.90;;;;;;5014105;28;20033;-79
2023/10/31 01:07:56;;;;;;;8.00;4.30;;;11.30;99.90;;;;;;5013854;28;20033;-80
2023/10/31 01:10:22;;;;;;;4.65;3.60;;;11.30;99.90;;;;;;5009139;28;20109;-79
2023/10/31 01:12:48;;;;;;;4.45;3.53;;;11.30;99.90;;;;;;5003090;28;20029;-79
2023/10/31 01:15:13;;;;;;;5.07;3.38;;;11.30;99.90;;;;;;5005726;28;20045;-78
2023/10/31 01:17:39;;;;;;;5.57;3.00;;;11.30;99.90;;;;;;5011213;28;20033;-79
2023/10/31 01:20:06;;;;;;;5.72;3.20;;;11.30;99.90;;;;;;5002293;28;20524;-79
2023/10/31 01:22:32;;;;;;;3.88;2.58;;;11.20;99.90;;;;;;5001868;28;20754;-80
2023/10/31 01:24:57;;;;;;;3.08;2.65;;;11.20;99.90;;;;;;5001153;28;20109;-80
2023/10/31 01:27:23;;;;;;;4.15;2.45;;;11.20;99.90;;;;;;5002943;28;20030;-79
2023/10/31 01:29:49;;;;;;;2.53;2.33;;;11.20;99.90;;;;;;5004598;28;20113;-79
2023/10/31 01:32:15;;;;;;;2.45;2.25;;;11.20;99.90;;;;;;5009145;28;20513;-79
2023/10/31 01:34:41;;;;;;;3.55;2.10;;;11.20;99.90;;;;;;5011322;28;20054;-79
2023/10/31 01:37:06;;;;;;;4.35;2.33;;;11.10;99.90;;;;;;5016138;28;20037;-79
2023/10/31 01:39:32;;;;;;;2.45;2.08;;;11.10;99.90;;;;;;5018389;28;20041;-79
2023/10/31 01:41:58;;;;;;;2.92;2.63;;;11.10;99.90;;;;;;5012895;28;20030;-79
2023/10/31 01:44:24;;;;;;;2.75;2.50;;;11.10;99.90;;;;;;5008801;28;20635;-78
2023/10/31 01:46:51;;;;;;;3.50;2.50;;;11.10;99.90;;;;;;5014543;28;20430;-80
2023/10/31 01:49:16;;;;;;;2.97;2.10;;;11.10;99.90;;;;;;5012861;28;20081;-79
2023/10/31 01:51:44;;;;;;;4.05;2.40;;;11.10;99.90;;;;;;5005024;28;20038;-80
2023/10/31 01:54:10;;;;;;;3.13;2.15;;;11.10;99.90;;;;;;5005282;28;20476;-79
2023/10/31 01:56:37;;;;;;;3.05;2.10;;;11.10;99.90;;;;;;5012673;28;20102;-77
2023/10/31 01:59:05;;;;;;;4.57;1.80;;;11.10;99.90;;;;;;5006653;28;20116;-78
2023/10/31 02:01:35;;;;;;;5.32;2.00;;;11.10;99.90;;;;;;5000800;28;20046;-80
2023/10/31 02:04:02;;;;;;;2.92;1.83;;;11.10;99.90;;;;;;5000487;28;20041;-79
2023/10/31 02:06:30;;;;;;;2.45;1.58;;;11.10;99.90;;;;;;5009349;28;20095;-79
2023/10/31 02:08:56;;;;;;;2.42;1.73;;;11.00;99.90;;;;;;5019399;28;20042;-79
2023/10/31 02:11:22;;;;;;;1.88;1.73;;;11.10;99.90;;;;;;5010042;28;20044;-79
2023/10/31 02:13:48;;;;;;;2.10;1.90;;;11.00;99.90;;;;;;5011278;28;20057;-79
2023/10/31 02:16:13;;;;;;;2.40;1.95;;;11.00;99.90;;;;;;5015715;28;20450;-78
2023/10/31 02:18:39;;;;;;;1.83;1.73;;;11.00;99.90;;;;;;5017112;28;20079;-78
2023/10/31 02:21:05;;;;;;;2.35;1.85;;;11.00;99.90;;;;;;5012975;28;20021;-78
2023/10/31 02:23:31;;;;;;;1.67;1.55;;;11.00;99.90;;;;;;5009436;28;20045;-79
2023/10/31 02:25:57;;;;;;;1.70;1.60;;;11.10;99.90;;;;;;5020668;28;20041;-79
2023/10/31 02:28:27;;;;;;;3.33;1.40;;;11.10;99.90;;;;;;5017735;28;20060;-78
2023/10/31 02:30:54;;;;;;;1.52;1.10;;;11.10;99.90;;;;;;5008329;28;20117;-78
2023/10/31 02:33:20;;;;;;;1.60;1.10;;;11.10;99.90;;;;;;5007411;28;20486;-78
2023/10/31 02:35:46;;;;;;;1.98;1.13;;;11.10;99.90;;;;;;5006477;28;20026;-79
2023/10/31 02:38:12;;;;;;;1.90;1.23;;;11.10;99.90;;;;;;5019355;28;20052;-79
2023/10/31 02:40:38;;;;;;;1.38;0.90;;;11.10;99.90;;;;;;5006907;28;20052;-79
2023/10/31 02:43:04;;;;;;;1.42;1.00;;;11.10;99.90;;;;;;5007336;28;20041;-78
2023/10/31 02:45:32;;;;;;;1.02;0.77;;;11.00;99.90;;;;;;5003051;28;20031;-79
2023/10/31 02:47:59;;;;;;;1.02;0.75;;;11.00;99.90;;;;;;4966126;28;20034;-79
2023/10/31 02:50:25;;;;;;;0.88;0.85;;;11.00;99.90;;;;;;5010502;28;20026;-79
2023/10/31 02:52:50;;;;;;;2.28;1.10;;;11.00;99.90;;;;;;4997225;28;20141;-79
2023/10/31 02:55:16;;;;;;;2.58;0.95;;;10.90;99.90;;;;;;5002862;28;20032;-80
2023/10/31 02:57:42;;;;;;;0.70;0.70;;;10.90;99.90;;;;;;5014343;28;20096;-78
2023/10/31 03:00:08;;;;;;;0.75;0.75;;;10.90;99.90;;;;;;5011172;28;20049;-78
2023/10/31 03:02:52;;;;;;;0.93;0.77;;;10.80;99.90;;;;;;4998757;28;20045;-79
2023/10/31 03:05:18;;;;;;;0.98;0.85;;;10.70;99.90;;;;;;5001822;28;20034;-79
2023/10/31 03:07:44;;;;;;;1.73;0.60;;;10.70;99.90;;;;;;5017181;28;20057;-79
2023/10/31 03:10:11;;;;;;;1.45;1.10;;;10.70;99.90;;;;;;5008273;28;20034;-79
2023/10/31 03:12:39;;;;;;;2.67;1.05;;;10.70;99.90;;;;;;4990588;28;20036;-79
2023/10/31 03:15:06;;;;;;;0.70;0.70;;;10.60;99.90;;;;;;5006795;28;20034;-78
2023/10/31 03:17:32;;;;;;;1.10;1.00;;;10.60;99.90;;;;;;4991585;28;20376;-78
2023/10/31 03:19:57;;;;;;;1.10;1.00;;;10.50;99.90;;;;;;5015877;28;20057;-79
2023/10/31 03:22:23;;;;;;;1.25;0.90;;;10.60;99.90;;;;;;4999475;28;20532;-80
2023/10/31 03:24:49;;;;;;;1.75;1.00;;;10.50;99.90;;;;;;5004639;28;20037;-79
2023/10/31 03:27:15;;;;;;;0.70;0.70;;;10.50;99.90;;;;;;5008682;28;20080;-80
2023/10/31 03:29:41;;;;;;;1.15;0.93;;;10.50;99.90;;;;;;5010164;28;20030;-77
2023/10/31 03:32:06;;;;;;;2.78;1.15;;;10.50;99.90;;;;;;5009375;28;20038;-77
2023/10/31 03:34:32;;;;;;;1.05;1.00;;;10.40;99.90;;;;;;5010895;28;20155;-80
2023/10/31 03:36:58;;;;;;;2.75;1.10;;;10.40;99.90;;;;;;5010993;28;20125;-79
2023/10/31 03:39:24;;;;;;;1.50;0.70;;;10.40;99.90;;;;;;5010836;28;20037;-80
2023/10/31 03:41:50;;;;;;;5.43;0.93;;;10.40;99.90;;;;;;5014853;28;20482;-80
2023/10/31 03:44:15;;;;;;;2.50;0.80;;;10.40;99.90;;;;;;5019766;28;20028;-78
2023/10/31 03:46:41;;;;;;;0.85;0.85;;;10.50;99.90;;;;;;5014520;28;20030;-79
2023/10/31 03:49:07;;;;;;;4.85;1.05;;;10.40;99.90;;;;;;5016063;28;20037;-79
2023/10/31 03:51:34;;;;;;;1.45;1.00;;;10.40;99.90;;;;;;5014275;28;20053;-78
2023/10/31 03:54:00;;;;;;;0.90;0.90;;;10.40;99.90;;;;;;5007334;28;20642;-80
2023/10/31 03:56:26;;;;;;;0.80;0.80;;;10.40;99.90;;;;;;5013008;28;20049;-78
2023/10/31 03:58:52;;;;;;;1.13;1.00;;;10.30;99.90;;;;;;5001212;28;20330;-79
2023/10/31 04:01:18;;;;;;;1.35;1.10;;;10.30;99.90;;;;;;5011029;28;20113;-79
2023/10/31 04:03:44;;;;;;;1.20;0.75;;;10.20;99.90;;;;;;5010781;28;20034;-81
2023/10/31 04:06:11;;;;;;;2.22;0.93;;;10.30;99.90;;;;;;5005305;28;20026;-80
2023/10/31 04:08:37;;;;;;;0.73;0.73;;;10.20;99.90;;;;;;5011748;28;20037;-79
2023/10/31 04:11:03;;;;;;;1.10;0.77;;;10.20;99.90;;;;;;5000308;28;20061;-79
2023/10/31 04:13:29;;;;;;;1.35;0.85;;;10.10;99.90;;;;;;4999283;28;20029;-81
2023/10/31 04:15:55;;;;;;;0.90;0.80;;;10.10;99.90;;;;;;5008461;28;20026;-80
2023/10/31 04:18:21;;;;;;;1.08;0.75;;;10.10;99.90;;;;;;5009213;28;20056;-80
2023/10/31 04:20:46;;;;;;;3.40;0.88;;;10.00;99.90;;;;;;5001004;28;20041;-80
2023/10/31 04:23:12;;;;;;;1.15;0.90;;;10.00;99.90;;;;;;4991920;28;20030;-81
2023/10/31 04:25:38;;;;;;;1.08;0.70;;;10.00;99.90;;;;;;5010395;28;20117;-80
2023/10/31 04:28:04;;;;;;;0.95;0.60;;;9.90;99.90;;;;;;5021132;28;20039;-78
2023/10/31 04:30:30;;;;;;;0.60;0.60;;;9.90;99.90;;;;;;5012568;28;20056;-79
2023/10/31 04:32:56;;;;;;;2.53;0.63;;;9.90;99.90;;;;;;5013817;28;20033;-81
2023/10/31 04:35:21;;;;;;;1.90;0.68;;;9.90;99.90;;;;;;5014191;28;20149;-81
2023/10/31 04:37:47;;;;;;;1.02;0.65;;;9.90;99.90;;;;;;5007483;28;20026;-80
2023/10/31 04:40:13;;;;;;;1.85;0.68;;;9.90;99.90;;;;;;5005300;28;20709;-77
2023/10/31 04:42:40;;;;;;;0.75;0.73;;;9.90;99.90;;;;;;4996594;28;20044;-80
2023/10/31 04:45:07;;;;;;;4.35;1.42;;;9.80;99.90;;;;;;5007536;28;20033;-79
2023/10/31 04:47:33;;;;;;;0.85;0.60;;;9.80;99.90;;;;;;5011010;28;20034;-79
2023/10/31 04:49:59;;;;;;;1.77;0.73;;;9.80;99.90;;;;;;5007074;28;20100;-81
2023/10/31 04:52:25;;;;;;;0.63;0.60;;;9.80;99.90;;;;;;5001507;28;20080;-78
2023/10/31 04:54:52;;;;;;;0.70;0.60;;;9.80;99.90;;;;;;5010131;28;20033;-80
2023/10/31 04:57:17;;;;;;;2.22;0.88;;;9.80;99.90;;;;;;5012546;28;20049;-80
2023/10/31 04:59:43;;;;;;;0.50;0.50;;;9.70;99.90;;;;;;5013982;28;20525;-80
2023/10/31 05:02:09;;;;;;;0.52;0.40;;;9.70;99.90;;;;;;5004009;28;20035;-78
2023/10/31 05:04:39;;;;;;;0.47;0.47;;;9.70;99.90;;;;;;4997734;28;20834;-79
2023/10/31 05:07:05;;;;;;;0.75;0.40;;;9.70;99.90;;;;;;5015071;28;20032;-79
2023/10/31 05:09:31;;;;;;;0.60;0.60;;;9.70;99.90;;;;;;5013969;28;20030;-80
2023/10/31 05:11:57;;;;;;;2.00;0.55;;;9.70;99.90;;;;;;5012536;28;20034;-79
2023/10/31 05:14:22;;;;;;;1.35;0.45;;;9.70;99.90;;;;;;5011409;28;20038;-80
2023/10/31 05:16:48;;;;;;;0.63;0.38;;;9.70;99.90;;;;;;5006595;28;20061;-80
2023/10/31 05:19:14;;;;;;;3.47;0.60;;;9.60;99.90;;;;;;5008061;28;20022;-80
2023/10/31 05:21:40;;;;;;;0.50;0.50;;;9.60;99.90;;;;;;5001289;28;20050;-79
2023/10/31 05:24:06;;;;;;;1.23;0.60;;;9.60;99.90;;;;;;5007248;28;20014;-79
2023/10/31 05:26:32;;;;;;;2.15;0.43;;;9.60;99.90;;;;;;5014289;28;20021;-81
2023/10/31 05:28:58;;;;;;;1.25;0.47;;;9.60;99.90;;;;;;5009527;28;20058;-79
2023/10/31 05:31:24;;;;;;;2.70;0.57;;;9.60;99.90;;;;;;5007734;28;20041;-80
2023/10/31 05:33:52;;;;;;;0.60;0.60;;;9.60;99.90;;;;;;5004411;28;20152;-80
2023/10/31 05:36:22;;;;;;;0.50;0.50;;;9.60;99.90;;;;;;4993664;28;20039;-80
2023/10/31 05:38:48;;;;;;;0.75;0.57;;;9.60;99.90;;;;;;5009590;28;20045;-80
2023/10/31 05:41:15;;;;;;;2.17;0.70;;;9.60;99.90;;;;;;5009783;28;20022;-78
2023/10/31 05:43:41;;;;;;;3.10;0.70;;;9.60;99.90;;;;;;5000549;28;20026;-79
2023/10/31 05:46:10;;;;;;;0.52;0.52;;;9.60;99.90;;;;;;5008136;28;20030;-82
2023/10/31 05:48:39;;;;;;;0.60;0.60;;;9.60;99.90;;;;;;5030120;28;20053;-77
2023/10/31 05:51:14;;;;;;;0.60;0.60;;;9.60;99.90;;;;;;5006013;28;20030;-77
2023/10/31 05:53:41;;;;;;;0.85;0.55;;;9.60;99.90;;;;;;4999173;28;20431;-79
2023/10/31 05:56:08;;;;;;;3.47;0.90;;;9.60;99.90;;;;;;5023309;28;20045;-80
2023/10/31 05:58:35;;;;;;;1.02;0.70;;;9.60;99.90;;;;;;5013165;28;20061;-81
2023/10/31 06:01:00;;;;;;;0.63;0.60;;;9.50;99.90;;;;;;5010366;28;20038;-80
2023/10/31 06:03:26;;;;;;;0.60;0.60;;;9.50;99.90;;;;;;5016435;28;20018;-80
2023/10/31 06:05:52;;;;;;;0.80;0.68;;;9.50;99.90;;;;;;5013375;28;20045;-81
2023/10/31 06:08:18;;;;;;;0.88;0.60;;;9.50;99.90;;;;;;5024514;28;20496;-79
2023/10/31 06:10:44;;;;;;;0.40;0.40;;;9.50;99.90;;;;;;5013375;28;20080;-81
2023/10/31 06:13:09;;;;;;;0.77;0.50;;;9.50;99.90;;;;;;5013221;28;20029;-81
2023/10/31 06:15:35;;;;;;;1.65;0.60;;;9.50;99.90;;;;;;5013506;28;20057;-79
2023/10/31 06:18:02;;;;;;;2.60;0.82;;;9.50;99.90;;;;;;5017446;28;20033;-81
2023/10/31 06:20:28;;;;;;;2.97;0.90;;;9.50;99.90;;;;;;5013623;28;20052;-79
2023/10/31 06:22:54;;;;;;;0.52;0.50;;;9.50;99.90;;;;;;5008553;28;20026;-81
2023/10/31 06:25:20;;;;;;;1.15;0.50;;;9.50;99.90;;;;;;5005837;28;20570;-78
2023/10/31 06:27:46;;;;;;;4.65;0.70;;;9.50;99.90;;;;;;5015308;28;20053;-80
2023/10/31 06:30:12;;;;;;;1.42;0.50;;;9.50;99.90;;;;;;5006191;28;20030;-81
2023/10/31 06:32:40;;;;;;;1.33;0.68;;;9.50;99.90;;;;;;5006035;28;20050;-81
2023/10/31 06:35:06;;;;;;;2.47;0.77;;;9.50;99.90;;;;;;5002538;28;20406;-81
2023/10/31 06:37:32;;;;;;;0.80;0.75;;;9.50;99.90;;;;;;5012167;28;20042;-81
2023/10/31 06:39:58;;;;;;;0.60;0.60;;;9.50;99.90;;;;;;5004970;28;20035;-81
2023/10/31 06:42:24;;;;;;;2.00;0.70;;;9.50;99.90;;;;;;5008010;28;20449;-80
2023/10/31 06:44:50;;;;;;;0.98;0.88;;;9.50;99.90;;;;;;5010121;28;20026;-81
2023/10/31 06:47:15;;;;;;;2.20;1.00;;;9.60;99.90;;;;;;5007853;28;20083;-81
2023/10/31 06:49:41;;;;;;;3.25;0.65;;;9.60;99.90;;;;;;5000265;28;20038;-80
2023/10/31 06:52:07;;;;;;;2.28;0.90;;;9.60;99.90;;;;;;4998697;28;20053;-79
2023/10/31 06:54:34;;;;;;;1.70;0.80;;;9.60;99.90;;;;;;5009928;28;20030;-80
2023/10/31 06:57:01;;;;;;;0.82;0.73;;;9.60;99.90;;;;;;5012942;28;20041;-81
2023/10/31 06:59:29;;;;;;;0.80;0.80;;;9.70;99.90;;;;;;5011775;28;20046;-81
2023/10/31 07:01:55;;;;;;;1.33;0.80;;;9.70;99.90;;;;;;5004896;28;20026;-80
2023/10/31 07:04:21;;;;;;;0.57;0.57;;;9.70;99.90;;;;;;5001122;28;20609;-81
2023/10/31 07:06:47;;;;;;;0.75;0.75;;;9.70;99.90;;;;;;5007756;28;20066;-81
2023/10/31 07:09:13;;;;;;;1.33;0.90;;;9.70;99.90;;;;;;5004959;28;20024;-83
2023/10/31 07:11:39;;;;;;;1.25;0.82;;;9.70;99.90;;;;;;5010983;28;20052;-79
2023/10/31 07:14:05;;;;;;;1.00;0.90;;;9.70;99.90;;;;;;5007919;28;20031;-78
2023/10/31 07:16:32;;;;;;;0.80;0.80;;;9.70;99.90;;;;;;5004154;28;20040;-82
2023/10/31 07:18:58;;;;;;;0.80;0.80;;;9.70;99.90;;;;;;5011986;28;20065;-79
2023/10/31 07:21:24;;;;;;;1.70;0.85;;;9.70;99.90;;;;;;5008587;28;20034;-77
2023/10/31 07:23:49;;;;;;;1.00;1.00;;;9.70;99.90;;;;;;5004824;28;20054;-80
2023/10/31 07:26:16;;;;;;;2.58;0.93;;;9.70;99.90;;;;;;5011435;28;20032;-79
2023/10/31 07:28:41;;;;;;;1.13;1.10;;;9.70;99.90;;;;;;5010634;28;20100;-78
2023/10/31 07:31:07;;;;;;;3.50;0.95;;;9.70;99.90;;;;;;5005790;28;20094;-77
2023/10/31 07:33:33;;;;;;;1.15;0.95;;;9.70;99.90;;;;;;5004501;28;20113;-80
2023/10/31 07:35:59;;;;;;;3.42;0.98;;;9.70;99.90;;;;;;5004981;28;20033;-80
2023/10/31 07:38:24;;;;;;;2.00;0.80;;;9.70;99.90;;;;;;5005408;28;20045;-79
2023/10/31 07:40:50;;;;;;;0.90;0.90;;;9.80;99.90;;;;;;5003507;28;20018;-79
2023/10/31 07:43:16;;;;;;;6.10;1.20;;;9.80;99.90;;;;;;5005855;28;20120;-80
2023/10/31 07:45:42;;;;;;;0.70;0.70;;;9.80;99.90;;;;;;5004991;28;20515;-81
2023/10/31 07:48:08;;;;;;;1.02;0.80;;;9.80;99.90;;;;;;5006764;28;20037;-81
2023/10/31 07:50:34;;;;;;;2.78;0.90;;;9.80;99.90;;;;;;5003749;28;20057;-82
2023/10/31 07:53:03;;;;;;;1.63;0.90;;;9.90;99.90;;;;;;5006136;28;20037;-79
2023/10/31 07:55:29;;;;;;;1.48;0.95;;;9.90;99.90;;;;;;5001302;28;20033;-81
2023/10/31 07:57:54;;;;;;;1.02;1.00;;;9.80;99.90;;;;;;5000164;28;20512;-79
2023/10/31 08:00:21;;;;;;;1.70;1.00;;;9.80;99.90;;;;;;4999475;28;20747;-81
2023/10/31 08:02:56;;;;;;;5.05;0.98;;;9.90;99.90;;;;;;4997937;28;20026;-80
2023/10/31 08:05:22;;;;;;;1.58;0.88;;;9.90;99.90;;;;;;5009353;28;20141;-80
2023/10/31 08:07:48;;;;;;;1.10;1.00;;;9.90;99.90;;;;;;5016944;28;20648;-79
2023/10/31 08:10:14;;;;;;;5.40;1.27;;;9.90;99.90;;;;;;5007680;28;20037;-80
2023/10/31 08:12:39;;;;;;;0.85;0.77;;;9.90;99.90;;;;;;5006095;28;20038;-78
2023/10/31 08:15:06;;;;;;;1.35;1.05;;;9.90;99.90;;;;;;5003004;28;20615;-79
2023/10/31 08:17:31;;;;;;;0.90;0.90;;;9.80;99.90;;;;;;5014907;28;20038;-80
2023/10/31 08:19:57;;;;;;;1.25;1.10;;;9.80;99.90;;;;;;5012561;28;20076;-80
2023/10/31 08:22:23;;;;;;;1.05;0.82;;;9.80;99.90;;;;;;5001195;28;20041;-80
2023/10/31 08:24:49;;;;;;;1.25;1.10;;;9.80;99.90;;;;;;5002253;28;20034;-79
2023/10/31 08:27:15;;;;;;;1.75;0.88;;;9.80;99.90;;;;;;4975911;28;20033;-78
2023/10/31 08:29:41;;;;;;;0.70;0.70;;;9.90;99.90;;;;;;5007793;28;20144;-78
2023/10/31 08:32:10;;;;;;;0.70;0.70;;;9.80;99.90;;;;;;5003781;28;20050;-77
2023/10/31 08:34:37;;;;;;;0.73;0.73;;;9.80;99.90;;;;;;5002924;28;20066;-78
2023/10/31 08:37:02;;;;;;;1.10;1.00;;;9.80;99.90;;;;;;5010680;28;20061;-79
2023/10/31 08:39:31;;;;;;;1.90;1.10;;;9.80;99.90;;;;;;5004871;28;20046;-77
2023/10/31 08:41:58;;;;;;;0.88;0.85;;;9.90;99.90;;;;;;4990752;28;20030;-78
2023/10/31 08:44:25;;;;;;;0.77;0.77;;;9.90;99.90;;;;;;5009386;28;20018;-78
2023/10/31 08:46:51;;;;;;;0.88;0.88;;;10.00;99.90;;;;;;5000270;28;20033;-78
2023/10/31 08:49:17;;;;;;;1.23;0.90;;;10.10;99.90;;;;;;5002001;28;20030;-76
2023/10/31 08:51:44;;;;;;;1.02;0.70;;;10.10;99.90;;;;;;5001666;28;20343;-79
2023/10/31 08:54:10;;;;;;;0.85;0.70;;;10.10;99.90;;;;;;5000635;28;20042;-80
2023/10/31 08:56:36;;;;;;;0.65;0.60;;;10.10;99.90;;;;;;5010624;28;20049;-79
2023/10/31 08:59:01;;;;;;;2.00;0.55;;;10.10;99.90;;;;;;5002981;28;20726;-81
2023/10/31 09:01:30;;;;;;;0.80;0.65;;;10.20;99.90;;;;;;4994279;28;20038;-81
2023/10/31 09:03:58;;;;;;;0.63;0.60;;;10.10;99.90;;;;;;5002661;28;20034;-80
2023/10/31 09:06:24;;;;;;;0.85;0.60;;;10.10;99.90;;;;;;4993467;28;20030;-80
2023/10/31 09:08:50;;;;;;;1.67;0.70;;;10.10;99.90;;;;;;5007667;28;20041;-79
2023/10/31 09:11:16;;;;;;;3.60;0.68;;;10.10;99.90;;;;;;5008336;28;20099;-78
2023/10/31 09:13:41;;;;;;;0.60;0.60;;;10.10;99.90;;;;;;5005786;28;20098;-77
2023/10/31 09:16:10;;;;;;;0.50;0.50;;;10.10;99.90;;;;;;5009613;28;20064;-79
2023/10/31 09:18:39;;;;;;;3.38;0.55;;;10.10;99.90;;;;;;5014411;28;20122;-82
2023/10/31 09:21:05;;;;;;;0.60;0.60;;;10.20;99.90;;;;;;4998192;28;20061;-82
2023/10/31 09:23:30;;;;;;;0.77;0.60;;;10.30;99.90;;;;;;4998035;28;20030;-80
2023/10/31 09:25:56;;;;;;;1.05;0.70;;;10.40;99.90;;;;;;4999475;28;20049;-80
2023/10/31 09:28:22;;;;;;;4.78;0.60;;;10.40;99.90;;;;;;4999000;28;20118;-77
2023/10/31 09:30:50;;;;;;;0.95;0.60;;;10.40;99.90;;;;;;5006134;28;20219;-80
2023/10/31 09:33:15;;;;;;;0.55;0.40;;;10.50;99.90;;;;;;5008465;28;20049;-81
2023/10/31 09:35:55;;;;;;;1.58;0.50;;;10.60;99.90;;;;;;5002556;28;20484;-78
2023/10/31 09:38:31;;;;;;;0.43;0.43;;;10.60;99.90;;;;;;5006304;28;20038;-78
2023/10/31 09:40:56;;;;;;;0.60;0.50;;;10.60;99.90;;;;;;5002996;28;20026;-79
2023/10/31 09:43:22;;;;;;;2.50;0.50;;;10.60;99.90;;;;;;5003460;28;20646;-77
2023/10/31 09:45:49;;;;;;;0.40;0.40;;;10.50;99.90;;;;;;5001383;28;20066;-76
2023/10/31 09:48:15;;;;;;;0.50;0.50;;;10.50;99.90;;;;;;4986411;28;20088;-79
2023/10/31 09:50:44;;;;;;;2.17;0.60;;;10.40;99.90;;;;;;5008524;28;20673;-80
2023/10/31 09:53:32;;;;;;;0.98;0.70;;;10.40;99.90;;;;;;5010344;28;20112;-77
2023/10/31 09:55:58;;;;;;;1.40;0.70;;;10.30;99.90;;;;;;5012255;28;20034;-80
2023/10/31 09:58:24;;;;;;;1.05;0.47;;;10.20;99.90;;;;;;5012530;28;20022;-81
2023/10/31 10:00:49;;;;;;;2.08;0.60;;;10.20;99.90;;;;;;5024356;28;20311;-79
2023/10/31 10:03:16;;;;;;;1.52;1.08;;;10.20;99.90;;;;;;5010780;28;20030;-80
2023/10/31 10:05:45;;;;;;;1.15;0.80;;;10.30;99.90;;;;;;5008954;28;20032;-80
2023/10/31 10:08:11;;;;;;;0.60;0.60;;;10.30;99.90;;;;;;5009532;28;20161;-80
2023/10/31 10:10:36;;;;;;;1.90;0.70;;;10.30;99.90;;;;;;5003937;28;20053;-82
2023/10/31 10:13:03;;;;;;;1.80;0.70;;;10.40;99.90;;;;;;5004115;28;20029;-80
2023/10/31 10:15:29;;;;;;;3.80;0.70;;;10.40;99.90;;;;;;5005559;28;20030;-79
2023/10/31 10:17:55;;;;;;;0.77;0.60;;;10.40;99.90;;;;;;5011417;28;20029;-76
2023/10/31 10:20:21;;;;;;;1.30;0.70;;;10.50;99.90;;;;;;4989332;28;20058;-81
2023/10/31 10:22:47;;;;;;;1.90;0.85;;;10.40;99.90;;;;;;5005656;28;20037;-81
2023/10/31 10:25:16;;;;;;;1.67;0.77;;;10.40;99.90;;;;;;4984996;28;20029;-79
2023/10/31 10:27:43;;;;;;;1.00;0.50;;;10.30;99.90;;;;;;5015140;28;20550;-79
2023/10/31 10:30:10;;;;;;;4.18;0.75;;;10.30;99.90;;;;;;5005916;28;20117;-81
2023/10/31 10:32:35;;;;;;;3.03;0.60;;;10.30;99.90;;;;;;5003314;28;20442;-79
2023/10/31 10:35:02;;;;;;;0.70;0.60;;;10.30;99.90;;;;;;4990090;28;20038;-79
2023/10/31 10:37:30;;;;;;;1.27;0.43;;;10.30;99.90;;;;;;5010064;28;20046;-81
2023/10/31 10:39:59;;;;;;;0.88;0.80;;;10.30;99.90;;;;;;5007908;28;20033;-79
2023/10/31 10:42:37;;;;;;;1.60;0.95;;;10.40;99.90;;;;;;5003950;28;20049;-79
2023/10/31 10:45:05;;;;;;;3.95;0.65;;;10.50;99.90;;;;;;5002021;28;20076;-79
2023/10/31 10:47:37;;;;;;;0.70;0.70;;;10.40;99.90;;;;;;5012883;28;20046;-79
2023/10/31 10:50:07;;;;;;;2.30;0.68;;;10.50;99.90;;;;;;5002980;28;20038;-78
2023/10/31 10:52:44;;;;;;;0.93;0.70;;;10.50;99.90;;;;;;5006417;28;20088;-79
2023/10/31 10:55:19;;;;;;;1.77;0.80;;;10.60;99.90;;;;;;5004082;28;20033;-80
2023/10/31 10:57:47;;;;;;;0.70;0.70;;;10.60;99.90;;;;;;5007636;28;20042;-80
2023/10/31 11:00:14;;;;;;;0.90;0.77;;;10.60;99.90;;;;;;4998818;28;20049;-80
2023/10/31 11:02:42;;;;;;;1.05;0.80;;;10.60;99.90;;;;;;4996210;28;20085;-79
2023/10/31 11:05:08;;;;;;;3.25;0.80;;;10.60;99.90;;;;;;5004684;28;20049;-80
2023/10/31 11:07:36;;;;;;;0.65;0.60;;;10.50;99.90;;;;;;5012932;28;20026;-80
2023/10/31 11:10:02;;;;;;;0.57;0.57;;;10.50;99.90;;;;;;5003869;28;20045;-78
2023/10/31 11:12:32;;;;;;;0.90;0.75;;;10.50;99.90;;;;;;5002749;28;20148;-80
2023/10/31 11:15:00;;;;;;;1.95;0.70;;;10.50;99.90;;;;;;5003061;28;20693;-79
2023/10/31 11:17:40;;;;;;;2.03;0.80;;;10.50;99.90;;;;;;5013380;28;20036;-78
2023/10/31 11:20:10;;;;;;;3.20;0.85;;;10.50;99.90;;;;;;5003401;28;20041;-80
2023/10/31 11:22:40;;;;;;;0.95;0.60;;;10.40;99.90;;;;;;4994987;28;20037;-79
2023/10/31 11:25:12;;;;;;;0.68;0.68;;;10.30;99.90;;;;;;5003779;28;20568;-80
2023/10/31 11:27:37;;;;;;;2.65;0.80;;;10.30;99.90;;;;;;5003841;28;20092;-79
2023/10/31 11:30:27;;;;;;;0.77;0.70;;;10.20;99.90;;;;;;5002109;28;20037;-78
2023/10/31 11:32:54;;;;;;;1.30;0.60;;;10.20;99.90;;;;;;5001821;28;20018;-79
2023/10/31 11:35:21;;;;;;;1.58;0.60;;;10.20;99.90;;;;;;5003286;28;20034;-79
2023/10/31 11:38:01;;;;;;;1.23;0.70;;;10.20;99.90;;;;;;5004444;28;20571;-80
2023/10/31 11:40:27;;;;;;;0.90;0.63;;;10.20;99.90;;;;;;4997186;28;20525;-78
2023/10/31 11:42:56;;;;;;;3.38;0.63;;;10.10;99.90;;;;;;5002840;28;20029;-79
2023/10/31 11:45:37;;;;;;;1.08;0.70;;;10.10;99.90;;;;;;5007345;28;20065;-79
2023/10/31 11:48:04;;;;;;;1.75;0.55;;;10.20;99.90;;;;;;5012911;28;20107;-79
2023/10/31 11:50:32;;;;;;;1.25;0.70;;;10.20;99.90;;;;;;5003328;28;20031;-77
2023/10/31 11:53:11;;;;;;;1.65;0.50;;;10.20;99.90;;;;;;4998482;28;20042;-79
2023/10/31 11:55:42;;;;;;;0.50;0.50;;;10.10;99.90;;;;;;4999288;28;20103;-78
2023/10/31 11:58:22;;;;;;;2.05;0.77;;;10.10;99.90;;;;;;5005869;28;20038;-79
2023/10/31 12:00:51;;;;;;;4.25;1.10;;;10.10;99.90;;;;;;5002509;28;20030;-80
2023/10/31 12:03:18;;;;;;;1.75;0.55;;;10.10;99.90;;;;;;4996896;28;20025;-78
2023/10/31 12:05:59;;;;;;;1.60;0.60;;;10.10;99.90;;;;;;5000451;28;20445;-78
2023/10/31 12:08:31;;;;;;;0.73;0.73;;;10.10;99.90;;;;;;5001900;28;20048;-78
2023/10/31 12:11:25;;;;;;;0.77;0.70;;;10.10;99.90;;;;;;5004823;28;20034;-81
2023/10/31 12:13:55;;;;;;;1.63;0.80;;;10.10;99.90;;;;;;5005377;28;20034;-82
2023/10/31 12:16:32;;;;;;;2.35;1.00;;;10.00;99.90;;;;;;5003946;28;20026;-81
2023/10/31 12:19:02;;;;;;;1.95;1.85;;;10.00;99.90;;;;;;5011927;28;20113;-81
2023/10/31 12:21:39;;;;;;;3.85;3.50;;;10.10;99.90;;;;;;5001129;28;20141;-78
2023/10/31 12:24:07;;;;;;;2.17;1.45;;;10.10;99.90;;;;;;4998102;28;20035;-78
2023/10/31 12:26:34;;;;;;;1.38;1.13;;;10.00;99.90;;;;;;5002345;28;20090;-82
2023/10/31 12:29:15;;;;;;;2.25;1.10;;;10.00;99.90;;;;;;4986951;28;20033;-78
2023/10/31 12:31:49;;;;;;;1.75;0.80;;;10.10;99.90;;;;;;5001834;28;20497;-83
2023/10/31 12:34:16;;;;;;;0.95;0.77;;;10.10;99.90;;;;;;4999849;28;20072;-80
2023/10/31 12:36:44;;;;;;;1.20;0.90;;;10.20;99.90;;;;;;5003477;28;20553;-81
2023/10/31 12:39:14;;;;;;;1.13;1.00;;;10.20;99.90;;;;;;5000670;28;20034;-82
2023/10/31 12:41:41;;;;;;;0.85;0.80;;;10.10;99.90;;;;;;5000535;28;20092;-80
2023/10/31 12:44:10;;;;;;;0.80;0.80;;;10.10;99.90;;;;;;5005763;28;20014;-82
2023/10/31 12:46:40;;;;;;;4.18;0.95;;;10.10;99.90;;;;;;5010752;28;20176;-81
2023/10/31 12:49:18;;;;;;;1.15;1.00;;;10.10;99.90;;;;;;5006396;28;20042;-81
2023/10/31 12:52:03;;;;;;;2.58;0.82;;;10.00;99.90;;;;;;5005041;28;20124;-82